sensor_id;sensor_type;location;lat;lon;timestamp;P1;durP1;ratioP1;P2;durP2;ratioP2
8861;SDS011;4799;50.996;4.754;2023-09-18T00:02:24;7.90;;;7.20;;
8861;SDS011;4799;50.996;4.754;2023-09-18T00:04:50;8.07;;;7.27;;
8861;SDS011;4799;50.996;4.754;2023-09-18T00:07:17;8.40;;;7.17;;
8861;SDS011;4799;50.996;4.754;2023-09-18T00:09:42;8.53;;;7.27;;
8861;SDS011;4799;50.996;4.754;2023-09-18T00:12:08;8.33;;;7.53;;
8861;SDS011;4799;50.996;4.754;2023-09-18T00:14:35;7.87;;;7.17;;
8861;SDS011;4799;50.996;4.754;2023-09-18T00:17:01;8.30;;;7.57;;
8861;SDS011;4799;50.996;4.754;2023-09-18T00:19:28;9.10;;;8.20;;
8861;SDS011;4799;50.996;4.754;2023-09-18T00:21:53;8.07;;;7.27;;
8861;SDS011;4799;50.996;4.754;2023-09-18T00:24:19;11.00;;;8.03;;
8861;SDS011;4799;50.996;4.754;2023-09-18T00:26:46;7.90;;;7.20;;
8861;SDS011;4799;50.996;4.754;2023-09-18T00:29:13;9.90;;;8.27;;
8861;SDS011;4799;50.996;4.754;2023-09-18T00:31:39;8.47;;;7.67;;
8861;SDS011;4799;50.996;4.754;2023-09-18T00:34:05;8.27;;;7.47;;
8861;SDS011;4799;50.996;4.754;2023-09-18T00:36:30;8.47;;;7.63;;
8861;SDS011;4799;50.996;4.754;2023-09-18T00:38:56;8.10;;;7.30;;
8861;SDS011;4799;50.996;4.754;2023-09-18T00:41:22;7.53;;;6.83;;
8861;SDS011;4799;50.996;4.754;2023-09-18T00:43:48;7.87;;;7.07;;
8861;SDS011;4799;50.996;4.754;2023-09-18T00:46:13;8.17;;;7.47;;
8861;SDS011;4799;50.996;4.754;2023-09-18T00:48:39;9.10;;;7.87;;
8861;SDS011;4799;50.996;4.754;2023-09-18T00:51:05;9.20;;;7.70;;
8861;SDS011;4799;50.996;4.754;2023-09-18T00:53:33;9.40;;;8.03;;
8861;SDS011;4799;50.996;4.754;2023-09-18T00:56:00;8.43;;;7.57;;
8861;SDS011;4799;50.996;4.754;2023-09-18T00:58:27;8.40;;;6.93;;
8861;SDS011;4799;50.996;4.754;2023-09-18T01:00:53;8.27;;;7.47;;
8861;SDS011;4799;50.996;4.754;2023-09-18T01:03:22;8.70;;;7.90;;
8861;SDS011;4799;50.996;4.754;2023-09-18T01:05:47;7.43;;;6.63;;
8861;SDS011;4799;50.996;4.754;2023-09-18T01:08:13;8.93;;;7.50;;
8861;SDS011;4799;50.996;4.754;2023-09-18T01:10:41;9.70;;;7.43;;
8861;SDS011;4799;50.996;4.754;2023-09-18T01:13:21;7.97;;;7.27;;
8861;SDS011;4799;50.996;4.754;2023-09-18T01:15:52;10.57;;;7.40;;
8861;SDS011;4799;50.996;4.754;2023-09-18T01:18:22;8.10;;;7.30;;
8861;SDS011;4799;50.996;4.754;2023-09-18T01:20:48;9.70;;;7.60;;
8861;SDS011;4799;50.996;4.754;2023-09-18T01:23:14;9.37;;;7.87;;
8861;SDS011;4799;50.996;4.754;2023-09-18T01:25:40;10.33;;;7.73;;
8861;SDS011;4799;50.996;4.754;2023-09-18T01:28:05;9.20;;;7.87;;
8861;SDS011;4799;50.996;4.754;2023-09-18T01:30:31;9.57;;;7.30;;
8861;SDS011;4799;50.996;4.754;2023-09-18T01:32:59;10.87;;;8.17;;
8861;SDS011;4799;50.996;4.754;2023-09-18T01:35:27;10.60;;;8.17;;
8861;SDS011;4799;50.996;4.754;2023-09-18T01:37:58;11.60;;;8.80;;
8861;SDS011;4799;50.996;4.754;2023-09-18T01:40:25;9.50;;;8.60;;
8861;SDS011;4799;50.996;4.754;2023-09-18T01:42:51;10.07;;;8.77;;
8861;SDS011;4799;50.996;4.754;2023-09-18T01:45:18;8.60;;;7.70;;
8861;SDS011;4799;50.996;4.754;2023-09-18T01:47:44;9.00;;;8.10;;
8861;SDS011;4799;50.996;4.754;2023-09-18T01:50:11;10.67;;;8.93;;
8861;SDS011;4799;50.996;4.754;2023-09-18T01:52:36;9.10;;;8.30;;
8861;SDS011;4799;50.996;4.754;2023-09-18T01:55:02;8.53;;;7.83;;
8861;SDS011;4799;50.996;4.754;2023-09-18T01:57:32;8.53;;;7.43;;
8861;SDS011;4799;50.996;4.754;2023-09-18T01:59:58;9.53;;;8.53;;
8861;SDS011;4799;50.996;4.754;2023-09-18T02:02:24;10.40;;;8.50;;
8861;SDS011;4799;50.996;4.754;2023-09-18T02:04:50;10.23;;;9.23;;
8861;SDS011;4799;50.996;4.754;2023-09-18T02:07:15;10.20;;;9.30;;
8861;SDS011;4799;50.996;4.754;2023-09-18T02:09:41;10.03;;;9.03;;
8861;SDS011;4799;50.996;4.754;2023-09-18T02:12:07;9.50;;;8.70;;
8861;SDS011;4799;50.996;4.754;2023-09-18T02:14:33;9.93;;;8.80;;
8861;SDS011;4799;50.996;4.754;2023-09-18T02:16:59;10.83;;;8.77;;
8861;SDS011;4799;50.996;4.754;2023-09-18T02:19:24;10.50;;;9.40;;
8861;SDS011;4799;50.996;4.754;2023-09-18T02:21:51;10.13;;;9.17;;
8861;SDS011;4799;50.996;4.754;2023-09-18T02:24:17;10.17;;;9.07;;
8861;SDS011;4799;50.996;4.754;2023-09-18T02:26:43;11.30;;;9.10;;
8861;SDS011;4799;50.996;4.754;2023-09-18T02:29:10;10.23;;;9.23;;
8861;SDS011;4799;50.996;4.754;2023-09-18T02:31:38;10.37;;;9.33;;
8861;SDS011;4799;50.996;4.754;2023-09-18T02:34:04;11.30;;;9.20;;
8861;SDS011;4799;50.996;4.754;2023-09-18T02:36:30;9.93;;;8.80;;
8861;SDS011;4799;50.996;4.754;2023-09-18T02:38:55;11.30;;;9.57;;
8861;SDS011;4799;50.996;4.754;2023-09-18T02:41:21;10.27;;;9.37;;
8861;SDS011;4799;50.996;4.754;2023-09-18T02:43:47;10.40;;;9.30;;
8861;SDS011;4799;50.996;4.754;2023-09-18T02:46:13;9.87;;;8.97;;
8861;SDS011;4799;50.996;4.754;2023-09-18T02:48:38;10.20;;;9.20;;
8861;SDS011;4799;50.996;4.754;2023-09-18T02:51:05;10.10;;;9.10;;
8861;SDS011;4799;50.996;4.754;2023-09-18T02:53:31;12.50;;;10.70;;
8861;SDS011;4799;50.996;4.754;2023-09-18T02:55:57;10.17;;;9.07;;
8861;SDS011;4799;50.996;4.754;2023-09-18T02:58:24;10.40;;;9.40;;
8861;SDS011;4799;50.996;4.754;2023-09-18T03:00:51;11.60;;;10.30;;
8861;SDS011;4799;50.996;4.754;2023-09-18T03:03:18;10.50;;;9.60;;
8861;SDS011;4799;50.996;4.754;2023-09-18T03:05:45;11.60;;;9.37;;
8861;SDS011;4799;50.996;4.754;2023-09-18T03:08:11;10.63;;;9.47;;
8861;SDS011;4799;50.996;4.754;2023-09-18T03:10:38;9.97;;;9.17;;
8861;SDS011;4799;50.996;4.754;2023-09-18T03:13:06;10.43;;;8.87;;
8861;SDS011;4799;50.996;4.754;2023-09-18T03:15:32;10.50;;;9.10;;
8861;SDS011;4799;50.996;4.754;2023-09-18T03:17:59;9.70;;;8.80;;
8861;SDS011;4799;50.996;4.754;2023-09-18T03:20:26;10.53;;;9.43;;
8861;SDS011;4799;50.996;4.754;2023-09-18T03:22:54;9.70;;;8.80;;
8861;SDS011;4799;50.996;4.754;2023-09-18T03:25:21;9.00;;;8.20;;
8861;SDS011;4799;50.996;4.754;2023-09-18T03:27:53;9.57;;;8.57;;
8861;SDS011;4799;50.996;4.754;2023-09-18T03:30:21;9.00;;;8.10;;
8861;SDS011;4799;50.996;4.754;2023-09-18T03:32:48;8.40;;;7.50;;
8861;SDS011;4799;50.996;4.754;2023-09-18T03:35:15;8.57;;;7.43;;
8861;SDS011;4799;50.996;4.754;2023-09-18T03:37:44;7.57;;;6.77;;
8861;SDS011;4799;50.996;4.754;2023-09-18T03:40:10;7.53;;;6.70;;
8861;SDS011;4799;50.996;4.754;2023-09-18T03:42:36;7.47;;;6.30;;
8861;SDS011;4799;50.996;4.754;2023-09-18T03:45:04;7.93;;;7.13;;
8861;SDS011;4799;50.996;4.754;2023-09-18T03:47:30;7.00;;;6.33;;
8861;SDS011;4799;50.996;4.754;2023-09-18T03:49:56;7.20;;;6.50;;
8861;SDS011;4799;50.996;4.754;2023-09-18T03:52:22;6.57;;;5.97;;
8861;SDS011;4799;50.996;4.754;2023-09-18T03:54:48;6.33;;;5.53;;
8861;SDS011;4799;50.996;4.754;2023-09-18T03:57:14;6.77;;;5.93;;
8861;SDS011;4799;50.996;4.754;2023-09-18T03:59:40;7.20;;;5.70;;
8861;SDS011;4799;50.996;4.754;2023-09-18T04:02:06;6.00;;;5.50;;
8861;SDS011;4799;50.996;4.754;2023-09-18T04:04:31;6.13;;;5.30;;
8861;SDS011;4799;50.996;4.754;2023-09-18T04:06:57;6.07;;;4.93;;
8861;SDS011;4799;50.996;4.754;2023-09-18T04:09:23;4.97;;;4.53;;
8861;SDS011;4799;50.996;4.754;2023-09-18T04:11:48;4.77;;;4.20;;
8861;SDS011;4799;50.996;4.754;2023-09-18T04:14:14;5.17;;;4.27;;
8861;SDS011;4799;50.996;4.754;2023-09-18T04:16:40;5.63;;;3.80;;
8861;SDS011;4799;50.996;4.754;2023-09-18T04:19:07;4.93;;;3.47;;
8861;SDS011;4799;50.996;4.754;2023-09-18T04:21:33;5.03;;;3.20;;
8861;SDS011;4799;50.996;4.754;2023-09-18T04:23:59;3.23;;;2.80;;
8861;SDS011;4799;50.996;4.754;2023-09-18T04:26:25;2.93;;;2.57;;
8861;SDS011;4799;50.996;4.754;2023-09-18T04:28:55;3.63;;;2.70;;
8861;SDS011;4799;50.996;4.754;2023-09-18T04:31:21;4.60;;;2.80;;
8861;SDS011;4799;50.996;4.754;2023-09-18T04:33:47;2.93;;;2.43;;
8861;SDS011;4799;50.996;4.754;2023-09-18T04:36:13;2.70;;;2.40;;
8861;SDS011;4799;50.996;4.754;2023-09-18T04:38:39;3.47;;;2.40;;
8861;SDS011;4799;50.996;4.754;2023-09-18T04:41:05;3.63;;;2.47;;
8861;SDS011;4799;50.996;4.754;2023-09-18T04:43:33;3.80;;;2.00;;
8861;SDS011;4799;50.996;4.754;2023-09-18T04:46:00;4.13;;;2.17;;
8861;SDS011;4799;50.996;4.754;2023-09-18T04:48:29;3.67;;;2.10;;
8861;SDS011;4799;50.996;4.754;2023-09-18T04:50:55;2.90;;;2.00;;
8861;SDS011;4799;50.996;4.754;2023-09-18T04:53:21;2.90;;;1.97;;
8861;SDS011;4799;50.996;4.754;2023-09-18T04:55:47;4.10;;;2.40;;
8861;SDS011;4799;50.996;4.754;2023-09-18T04:58:14;2.43;;;2.03;;
8861;SDS011;4799;50.996;4.754;2023-09-18T05:00:41;2.63;;;2.20;;
8861;SDS011;4799;50.996;4.754;2023-09-18T05:03:06;2.53;;;2.20;;
8861;SDS011;4799;50.996;4.754;2023-09-18T05:05:36;3.10;;;2.10;;
8861;SDS011;4799;50.996;4.754;2023-09-18T05:08:02;4.53;;;2.33;;
8861;SDS011;4799;50.996;4.754;2023-09-18T05:10:32;3.87;;;2.10;;
8861;SDS011;4799;50.996;4.754;2023-09-18T05:12:58;2.50;;;2.00;;
8861;SDS011;4799;50.996;4.754;2023-09-18T05:15:25;2.43;;;2.10;;
8861;SDS011;4799;50.996;4.754;2023-09-18T05:17:51;3.53;;;2.20;;
8861;SDS011;4799;50.996;4.754;2023-09-18T05:20:22;3.70;;;2.20;;
8861;SDS011;4799;50.996;4.754;2023-09-18T05:22:52;3.50;;;2.23;;
8861;SDS011;4799;50.996;4.754;2023-09-18T05:25:18;2.87;;;2.37;;
8861;SDS011;4799;50.996;4.754;2023-09-18T05:27:46;2.63;;;2.30;;
8861;SDS011;4799;50.996;4.754;2023-09-18T05:30:14;3.47;;;2.00;;
8861;SDS011;4799;50.996;4.754;2023-09-18T05:32:44;2.67;;;1.90;;
8861;SDS011;4799;50.996;4.754;2023-09-18T05:35:10;4.00;;;2.30;;
8861;SDS011;4799;50.996;4.754;2023-09-18T05:37:38;2.90;;;2.10;;
8861;SDS011;4799;50.996;4.754;2023-09-18T05:40:08;3.57;;;2.00;;
8861;SDS011;4799;50.996;4.754;2023-09-18T05:42:36;3.90;;;2.27;;
8861;SDS011;4799;50.996;4.754;2023-09-18T05:45:02;3.47;;;2.00;;
8861;SDS011;4799;50.996;4.754;2023-09-18T05:47:32;2.90;;;2.27;;
8861;SDS011;4799;50.996;4.754;2023-09-18T05:49:58;4.10;;;2.30;;
8861;SDS011;4799;50.996;4.754;2023-09-18T05:52:24;3.40;;;2.10;;
8861;SDS011;4799;50.996;4.754;2023-09-18T05:54:50;3.50;;;2.10;;
8861;SDS011;4799;50.996;4.754;2023-09-18T05:57:16;4.10;;;2.00;;
8861;SDS011;4799;50.996;4.754;2023-09-18T05:59:43;3.33;;;2.10;;
8861;SDS011;4799;50.996;4.754;2023-09-18T06:02:11;5.57;;;2.20;;
8861;SDS011;4799;50.996;4.754;2023-09-18T06:04:37;3.10;;;2.30;;
8861;SDS011;4799;50.996;4.754;2023-09-18T06:07:03;2.50;;;2.20;;
8861;SDS011;4799;50.996;4.754;2023-09-18T06:09:29;3.53;;;2.07;;
8861;SDS011;4799;50.996;4.754;2023-09-18T06:11:55;4.33;;;2.60;;
8861;SDS011;4799;50.996;4.754;2023-09-18T06:14:20;4.40;;;2.10;;
8861;SDS011;4799;50.996;4.754;2023-09-18T06:16:48;3.70;;;2.03;;
8861;SDS011;4799;50.996;4.754;2023-09-18T06:19:14;2.93;;;2.07;;
8861;SDS011;4799;50.996;4.754;2023-09-18T06:21:42;3.10;;;1.90;;
8861;SDS011;4799;50.996;4.754;2023-09-18T06:24:09;3.67;;;2.20;;
8861;SDS011;4799;50.996;4.754;2023-09-18T06:26:35;4.43;;;2.17;;
8861;SDS011;4799;50.996;4.754;2023-09-18T06:29:01;3.67;;;2.57;;
8861;SDS011;4799;50.996;4.754;2023-09-18T06:31:27;3.67;;;1.87;;
8861;SDS011;4799;50.996;4.754;2023-09-18T06:33:53;4.57;;;1.93;;
8861;SDS011;4799;50.996;4.754;2023-09-18T06:36:19;2.13;;;1.90;;
8861;SDS011;4799;50.996;4.754;2023-09-18T06:38:46;3.80;;;1.90;;
8861;SDS011;4799;50.996;4.754;2023-09-18T06:41:12;2.63;;;2.00;;
8861;SDS011;4799;50.996;4.754;2023-09-18T06:43:37;2.70;;;1.83;;
8861;SDS011;4799;50.996;4.754;2023-09-18T06:46:03;3.33;;;2.10;;
8861;SDS011;4799;50.996;4.754;2023-09-18T06:48:29;3.53;;;1.80;;
8861;SDS011;4799;50.996;4.754;2023-09-18T06:51:00;3.37;;;2.03;;
8861;SDS011;4799;50.996;4.754;2023-09-18T06:53:26;4.13;;;2.17;;
8861;SDS011;4799;50.996;4.754;2023-09-18T06:55:53;2.27;;;2.00;;
8861;SDS011;4799;50.996;4.754;2023-09-18T06:58:21;4.63;;;2.00;;
8861;SDS011;4799;50.996;4.754;2023-09-18T07:00:47;3.00;;;2.00;;
8861;SDS011;4799;50.996;4.754;2023-09-18T07:03:15;3.13;;;2.00;;
8861;SDS011;4799;50.996;4.754;2023-09-18T07:05:42;3.30;;;1.93;;
8861;SDS011;4799;50.996;4.754;2023-09-18T07:08:08;2.60;;;1.80;;
8861;SDS011;4799;50.996;4.754;2023-09-18T07:10:37;2.63;;;2.00;;
8861;SDS011;4799;50.996;4.754;2023-09-18T07:13:04;5.27;;;2.50;;
8861;SDS011;4799;50.996;4.754;2023-09-18T07:15:29;4.27;;;2.10;;
8861;SDS011;4799;50.996;4.754;2023-09-18T07:17:55;3.20;;;2.10;;
8861;SDS011;4799;50.996;4.754;2023-09-18T07:20:21;2.93;;;2.03;;
8861;SDS011;4799;50.996;4.754;2023-09-18T07:22:49;2.90;;;2.20;;
8861;SDS011;4799;50.996;4.754;2023-09-18T07:25:15;5.10;;;2.10;;
8861;SDS011;4799;50.996;4.754;2023-09-18T07:27:41;2.97;;;2.20;;
8861;SDS011;4799;50.996;4.754;2023-09-18T07:30:11;3.90;;;2.10;;
8861;SDS011;4799;50.996;4.754;2023-09-18T07:32:39;4.10;;;2.20;;
8861;SDS011;4799;50.996;4.754;2023-09-18T07:35:08;2.63;;;2.10;;
8861;SDS011;4799;50.996;4.754;2023-09-18T07:37:35;2.40;;;1.90;;
8861;SDS011;4799;50.996;4.754;2023-09-18T07:40:07;4.73;;;2.30;;
8861;SDS011;4799;50.996;4.754;2023-09-18T07:42:33;4.07;;;3.00;;
8861;SDS011;4799;50.996;4.754;2023-09-18T07:44:59;6.40;;;3.17;;
8861;SDS011;4799;50.996;4.754;2023-09-18T07:47:25;6.30;;;3.17;;
8861;SDS011;4799;50.996;4.754;2023-09-18T07:49:51;5.43;;;4.37;;
8861;SDS011;4799;50.996;4.754;2023-09-18T07:52:19;5.07;;;3.80;;
8861;SDS011;4799;50.996;4.754;2023-09-18T07:54:44;3.60;;;3.20;;
8861;SDS011;4799;50.996;4.754;2023-09-18T07:57:10;3.13;;;2.60;;
8861;SDS011;4799;50.996;4.754;2023-09-18T07:59:36;3.80;;;2.50;;
8861;SDS011;4799;50.996;4.754;2023-09-18T08:02:02;3.33;;;2.30;;
8861;SDS011;4799;50.996;4.754;2023-09-18T08:04:30;4.20;;;2.13;;
8861;SDS011;4799;50.996;4.754;2023-09-18T08:06:57;4.17;;;2.20;;
8861;SDS011;4799;50.996;4.754;2023-09-18T08:09:22;2.90;;;2.00;;
8861;SDS011;4799;50.996;4.754;2023-09-18T08:11:48;3.77;;;2.33;;
8861;SDS011;4799;50.996;4.754;2023-09-18T08:14:15;5.43;;;2.30;;
8861;SDS011;4799;50.996;4.754;2023-09-18T08:16:42;4.43;;;2.30;;
8861;SDS011;4799;50.996;4.754;2023-09-18T08:19:08;3.60;;;2.30;;
8861;SDS011;4799;50.996;4.754;2023-09-18T08:21:34;3.77;;;2.40;;
8861;SDS011;4799;50.996;4.754;2023-09-18T08:24:00;3.10;;;2.20;;
8861;SDS011;4799;50.996;4.754;2023-09-18T08:26:26;2.83;;;2.13;;
8861;SDS011;4799;50.996;4.754;2023-09-18T08:28:53;3.07;;;2.70;;
8861;SDS011;4799;50.996;4.754;2023-09-18T08:31:19;4.53;;;2.43;;
8861;SDS011;4799;50.996;4.754;2023-09-18T08:33:45;3.33;;;2.40;;
8861;SDS011;4799;50.996;4.754;2023-09-18T08:36:10;2.83;;;2.50;;
8861;SDS011;4799;50.996;4.754;2023-09-18T08:38:37;3.83;;;2.63;;
8861;SDS011;4799;50.996;4.754;2023-09-18T08:41:03;4.83;;;2.50;;
8861;SDS011;4799;50.996;4.754;2023-09-18T08:43:31;2.87;;;2.27;;
8861;SDS011;4799;50.996;4.754;2023-09-18T08:45:58;4.07;;;2.40;;
8861;SDS011;4799;50.996;4.754;2023-09-18T08:48:27;2.87;;;2.30;;
8861;SDS011;4799;50.996;4.754;2023-09-18T08:51:03;4.30;;;2.30;;
8861;SDS011;4799;50.996;4.754;2023-09-18T08:53:31;2.73;;;2.33;;
8861;SDS011;4799;50.996;4.754;2023-09-18T08:55:58;4.27;;;2.30;;
8861;SDS011;4799;50.996;4.754;2023-09-18T08:58:33;4.37;;;2.10;;
8861;SDS011;4799;50.996;4.754;2023-09-18T09:01:02;4.27;;;2.53;;
8861;SDS011;4799;50.996;4.754;2023-09-18T09:03:29;3.80;;;2.57;;
8861;SDS011;4799;50.996;4.754;2023-09-18T09:05:55;4.03;;;2.40;;
8861;SDS011;4799;50.996;4.754;2023-09-18T09:08:22;4.07;;;2.33;;
8861;SDS011;4799;50.996;4.754;2023-09-18T09:10:48;5.67;;;2.70;;
8861;SDS011;4799;50.996;4.754;2023-09-18T09:13:15;3.57;;;2.67;;
8861;SDS011;4799;50.996;4.754;2023-09-18T09:15:45;3.20;;;2.20;;
8861;SDS011;4799;50.996;4.754;2023-09-18T09:18:13;3.70;;;2.63;;
8861;SDS011;4799;50.996;4.754;2023-09-18T09:20:55;3.87;;;2.87;;
8861;SDS011;4799;50.996;4.754;2023-09-18T09:23:26;5.97;;;2.80;;
8861;SDS011;4799;50.996;4.754;2023-09-18T09:25:53;4.03;;;2.60;;
8861;SDS011;4799;50.996;4.754;2023-09-18T09:28:30;4.33;;;2.40;;
8861;SDS011;4799;50.996;4.754;2023-09-18T09:31:02;4.37;;;2.40;;
8861;SDS011;4799;50.996;4.754;2023-09-18T09:33:28;3.37;;;2.23;;
8861;SDS011;4799;50.996;4.754;2023-09-18T09:35:54;4.20;;;2.50;;
8861;SDS011;4799;50.996;4.754;2023-09-18T09:38:22;5.83;;;2.80;;
8861;SDS011;4799;50.996;4.754;2023-09-18T09:41:00;7.33;;;2.90;;
8861;SDS011;4799;50.996;4.754;2023-09-18T09:43:30;4.07;;;2.60;;
8861;SDS011;4799;50.996;4.754;2023-09-18T09:45:58;5.83;;;2.73;;
8861;SDS011;4799;50.996;4.754;2023-09-18T09:48:25;4.57;;;2.50;;
8861;SDS011;4799;50.996;4.754;2023-09-18T09:50:51;5.10;;;2.80;;
8861;SDS011;4799;50.996;4.754;2023-09-18T09:53:20;4.30;;;3.27;;
8861;SDS011;4799;50.996;4.754;2023-09-18T09:56:13;5.23;;;2.90;;
8861;SDS011;4799;50.996;4.754;2023-09-18T09:58:44;4.13;;;2.60;;
8861;SDS011;4799;50.996;4.754;2023-09-18T10:01:24;4.67;;;3.07;;
8861;SDS011;4799;50.996;4.754;2023-09-18T10:03:53;4.33;;;2.93;;
8861;SDS011;4799;50.996;4.754;2023-09-18T10:06:19;5.50;;;2.93;;
8861;SDS011;4799;50.996;4.754;2023-09-18T10:08:46;5.43;;;2.90;;
8861;SDS011;4799;50.996;4.754;2023-09-18T10:11:13;6.20;;;2.80;;
8861;SDS011;4799;50.996;4.754;2023-09-18T10:13:54;5.23;;;2.80;;
8861;SDS011;4799;50.996;4.754;2023-09-18T10:16:25;4.27;;;2.90;;
8861;SDS011;4799;50.996;4.754;2023-09-18T10:24:19;4.07;;;2.97;;
8861;SDS011;4799;50.996;4.754;2023-09-18T10:27:01;4.03;;;2.53;;
8861;SDS011;4799;50.996;4.754;2023-09-18T10:29:28;5.63;;;2.77;;
8861;SDS011;4799;50.996;4.754;2023-09-18T10:31:56;4.23;;;2.70;;
8861;SDS011;4799;50.996;4.754;2023-09-18T10:34:22;3.47;;;2.50;;
8861;SDS011;4799;50.996;4.754;2023-09-18T10:36:50;3.13;;;2.57;;
8861;SDS011;4799;50.996;4.754;2023-09-18T10:39:16;3.27;;;2.33;;
8861;SDS011;4799;50.996;4.754;2023-09-18T10:41:50;2.90;;;2.40;;
8861;SDS011;4799;50.996;4.754;2023-09-18T10:44:17;3.23;;;2.37;;
8861;SDS011;4799;50.996;4.754;2023-09-18T10:46:47;4.53;;;2.60;;
8861;SDS011;4799;50.996;4.754;2023-09-18T10:49:17;2.93;;;2.47;;
8861;SDS011;4799;50.996;4.754;2023-09-18T10:51:44;3.83;;;2.67;;
8861;SDS011;4799;50.996;4.754;2023-09-18T10:54:14;4.30;;;2.80;;
8861;SDS011;4799;50.996;4.754;2023-09-18T10:56:42;5.60;;;2.60;;
8861;SDS011;4799;50.996;4.754;2023-09-18T10:59:08;4.03;;;2.60;;
8861;SDS011;4799;50.996;4.754;2023-09-18T11:01:34;4.23;;;2.60;;
8861;SDS011;4799;50.996;4.754;2023-09-18T11:04:04;5.80;;;2.80;;
8861;SDS011;4799;50.996;4.754;2023-09-18T11:09:24;3.60;;;2.47;;
8861;SDS011;4799;50.996;4.754;2023-09-18T11:11:54;4.10;;;2.70;;
8861;SDS011;4799;50.996;4.754;2023-09-18T11:17:34;3.50;;;2.73;;
8861;SDS011;4799;50.996;4.754;2023-09-18T11:22:37;6.83;;;2.80;;
8861;SDS011;4799;50.996;4.754;2023-09-18T11:28:06;3.00;;;2.60;;
8861;SDS011;4799;50.996;4.754;2023-09-18T11:30:54;4.53;;;2.97;;
8861;SDS011;4799;50.996;4.754;2023-09-18T11:36:05;4.17;;;3.17;;
8861;SDS011;4799;50.996;4.754;2023-09-18T11:38:53;3.87;;;2.50;;
8861;SDS011;4799;50.996;4.754;2023-09-18T11:41:22;4.20;;;2.53;;
8861;SDS011;4799;50.996;4.754;2023-09-18T11:43:50;4.10;;;2.70;;
8861;SDS011;4799;50.996;4.754;2023-09-18T11:46:20;4.20;;;2.70;;
8861;SDS011;4799;50.996;4.754;2023-09-18T11:49:07;4.37;;;2.50;;
8861;SDS011;4799;50.996;4.754;2023-09-18T11:51:35;2.67;;;2.47;;
8861;SDS011;4799;50.996;4.754;2023-09-18T11:54:01;3.23;;;2.40;;
8861;SDS011;4799;50.996;4.754;2023-09-18T11:56:38;3.50;;;2.20;;
8861;SDS011;4799;50.996;4.754;2023-09-18T11:59:04;4.33;;;2.53;;
8861;SDS011;4799;50.996;4.754;2023-09-18T12:01:31;4.13;;;2.63;;
8861;SDS011;4799;50.996;4.754;2023-09-18T12:04:01;3.10;;;2.50;;
8861;SDS011;4799;50.996;4.754;2023-09-18T12:06:35;2.83;;;2.40;;
8861;SDS011;4799;50.996;4.754;2023-09-18T12:09:02;3.50;;;2.50;;
8861;SDS011;4799;50.996;4.754;2023-09-18T12:11:29;4.13;;;2.50;;
8861;SDS011;4799;50.996;4.754;2023-09-18T12:13:57;3.73;;;2.20;;
8861;SDS011;4799;50.996;4.754;2023-09-18T12:16:23;3.00;;;2.20;;
8861;SDS011;4799;50.996;4.754;2023-09-18T12:18:49;3.57;;;2.40;;
8861;SDS011;4799;50.996;4.754;2023-09-18T12:21:16;3.90;;;2.10;;
8861;SDS011;4799;50.996;4.754;2023-09-18T12:23:43;4.30;;;2.53;;
8861;SDS011;4799;50.996;4.754;2023-09-18T12:26:14;2.53;;;2.33;;
8861;SDS011;4799;50.996;4.754;2023-09-18T12:28:41;2.87;;;2.23;;
8861;SDS011;4799;50.996;4.754;2023-09-18T12:31:11;2.40;;;2.20;;
8861;SDS011;4799;50.996;4.754;2023-09-18T12:33:38;3.03;;;2.43;;
8861;SDS011;4799;50.996;4.754;2023-09-18T12:36:06;2.70;;;2.13;;
8861;SDS011;4799;50.996;4.754;2023-09-18T12:38:33;3.20;;;2.33;;
8861;SDS011;4799;50.996;4.754;2023-09-18T12:40:59;5.20;;;2.37;;
8861;SDS011;4799;50.996;4.754;2023-09-18T12:43:40;3.80;;;2.27;;
8861;SDS011;4799;50.996;4.754;2023-09-18T12:46:07;2.70;;;2.23;;
8861;SDS011;4799;50.996;4.754;2023-09-18T12:48:37;3.30;;;2.20;;
8861;SDS011;4799;50.996;4.754;2023-09-18T12:51:07;2.73;;;2.07;;
8861;SDS011;4799;50.996;4.754;2023-09-18T12:53:33;5.07;;;2.40;;
8861;SDS011;4799;50.996;4.754;2023-09-18T12:56:09;4.33;;;2.40;;
8861;SDS011;4799;50.996;4.754;2023-09-18T12:58:37;3.63;;;2.50;;
8861;SDS011;4799;50.996;4.754;2023-09-18T13:01:07;4.53;;;2.43;;
8861;SDS011;4799;50.996;4.754;2023-09-18T13:03:44;6.40;;;2.40;;
8861;SDS011;4799;50.996;4.754;2023-09-18T13:06:20;4.43;;;2.37;;
8861;SDS011;4799;50.996;4.754;2023-09-18T13:08:46;2.50;;;2.17;;
8861;SDS011;4799;50.996;4.754;2023-09-18T13:11:13;3.20;;;2.30;;
8861;SDS011;4799;50.996;4.754;2023-09-18T13:13:42;3.50;;;2.37;;
8861;SDS011;4799;50.996;4.754;2023-09-18T13:16:11;2.43;;;2.03;;
8861;SDS011;4799;50.996;4.754;2023-09-18T13:18:37;3.00;;;2.20;;
8861;SDS011;4799;50.996;4.754;2023-09-18T13:21:10;2.50;;;2.30;;
8861;SDS011;4799;50.996;4.754;2023-09-18T13:23:37;3.10;;;1.90;;
8861;SDS011;4799;50.996;4.754;2023-09-18T13:26:03;3.37;;;2.00;;
8861;SDS011;4799;50.996;4.754;2023-09-18T13:28:30;2.87;;;2.13;;
8861;SDS011;4799;50.996;4.754;2023-09-18T13:30:58;2.90;;;2.23;;
8861;SDS011;4799;50.996;4.754;2023-09-18T13:33:30;3.63;;;2.00;;
8861;SDS011;4799;50.996;4.754;2023-09-18T13:35:57;4.10;;;2.20;;
8861;SDS011;4799;50.996;4.754;2023-09-18T13:38:24;3.17;;;2.40;;
8861;SDS011;4799;50.996;4.754;2023-09-18T13:40:51;3.33;;;2.07;;
8861;SDS011;4799;50.996;4.754;2023-09-18T13:43:18;2.90;;;1.90;;
8861;SDS011;4799;50.996;4.754;2023-09-18T13:45:47;1.83;;;1.70;;
8861;SDS011;4799;50.996;4.754;2023-09-18T13:48:13;3.93;;;2.00;;
8861;SDS011;4799;50.996;4.754;2023-09-18T13:50:40;6.03;;;2.20;;
8861;SDS011;4799;50.996;4.754;2023-09-18T13:53:06;2.90;;;2.07;;
8861;SDS011;4799;50.996;4.754;2023-09-18T13:55:33;3.47;;;1.93;;
8861;SDS011;4799;50.996;4.754;2023-09-18T13:57:59;4.50;;;2.17;;
8861;SDS011;4799;50.996;4.754;2023-09-18T14:00:28;3.03;;;1.87;;
8861;SDS011;4799;50.996;4.754;2023-09-18T14:02:54;2.93;;;2.17;;
8861;SDS011;4799;50.996;4.754;2023-09-18T14:05:20;4.53;;;2.00;;
8861;SDS011;4799;50.996;4.754;2023-09-18T14:07:45;3.90;;;2.00;;
8861;SDS011;4799;50.996;4.754;2023-09-18T14:10:12;5.93;;;2.10;;
8861;SDS011;4799;50.996;4.754;2023-09-18T14:12:39;4.53;;;2.20;;
8861;SDS011;4799;50.996;4.754;2023-09-18T14:15:06;3.60;;;2.00;;
8861;SDS011;4799;50.996;4.754;2023-09-18T14:17:33;3.47;;;2.00;;
8861;SDS011;4799;50.996;4.754;2023-09-18T14:19:59;2.10;;;1.80;;
8861;SDS011;4799;50.996;4.754;2023-09-18T14:22:25;2.40;;;2.00;;
8861;SDS011;4799;50.996;4.754;2023-09-18T14:24:51;3.97;;;1.93;;
8861;SDS011;4799;50.996;4.754;2023-09-18T14:27:17;2.30;;;1.70;;
8861;SDS011;4799;50.996;4.754;2023-09-18T14:29:43;3.40;;;1.70;;
8861;SDS011;4799;50.996;4.754;2023-09-18T14:32:09;3.00;;;2.00;;
8861;SDS011;4799;50.996;4.754;2023-09-18T14:34:36;2.90;;;2.10;;
8861;SDS011;4799;50.996;4.754;2023-09-18T14:37:02;3.40;;;1.80;;
8861;SDS011;4799;50.996;4.754;2023-09-18T14:39:31;2.60;;;1.87;;
8861;SDS011;4799;50.996;4.754;2023-09-18T14:41:58;2.83;;;1.83;;
8861;SDS011;4799;50.996;4.754;2023-09-18T14:44:26;4.07;;;2.00;;
8861;SDS011;4799;50.996;4.754;2023-09-18T14:46:53;3.43;;;1.97;;
8861;SDS011;4799;50.996;4.754;2023-09-18T14:49:19;3.73;;;1.87;;
8861;SDS011;4799;50.996;4.754;2023-09-18T14:51:45;5.00;;;2.00;;
8861;SDS011;4799;50.996;4.754;2023-09-18T14:54:11;2.77;;;1.80;;
8861;SDS011;4799;50.996;4.754;2023-09-18T14:56:37;3.27;;;2.07;;
8861;SDS011;4799;50.996;4.754;2023-09-18T14:59:02;2.93;;;1.77;;
8861;SDS011;4799;50.996;4.754;2023-09-18T15:01:32;3.20;;;2.00;;
8861;SDS011;4799;50.996;4.754;2023-09-18T15:03:58;3.90;;;2.13;;
8861;SDS011;4799;50.996;4.754;2023-09-18T15:06:24;13.00;;;2.60;;
8861;SDS011;4799;50.996;4.754;2023-09-18T15:08:51;12.43;;;2.90;;
8861;SDS011;4799;50.996;4.754;2023-09-18T15:11:16;4.60;;;2.90;;
8861;SDS011;4799;50.996;4.754;2023-09-18T15:13:42;4.73;;;2.93;;
8861;SDS011;4799;50.996;4.754;2023-09-18T15:16:10;6.60;;;3.40;;
8861;SDS011;4799;50.996;4.754;2023-09-18T15:18:35;5.00;;;3.33;;
8861;SDS011;4799;50.996;4.754;2023-09-18T15:21:02;6.47;;;3.40;;
8861;SDS011;4799;50.996;4.754;2023-09-18T15:23:27;5.07;;;3.07;;
8861;SDS011;4799;50.996;4.754;2023-09-18T15:25:55;4.23;;;3.17;;
8861;SDS011;4799;50.996;4.754;2023-09-18T15:28:25;5.03;;;3.30;;
8861;SDS011;4799;50.996;4.754;2023-09-18T15:30:54;5.90;;;3.20;;
8861;SDS011;4799;50.996;4.754;2023-09-18T15:33:20;4.33;;;2.80;;
8861;SDS011;4799;50.996;4.754;2023-09-18T15:35:50;7.17;;;3.10;;
8861;SDS011;4799;50.996;4.754;2023-09-18T15:38:17;5.70;;;2.97;;